createdAt,value
2022-12-23T00:00:45.874Z,22.90
2022-12-23T00:03:12.944Z,19.50
2022-12-23T00:05:41.091Z,23.40
2022-12-23T00:08:08.823Z,21.10
2022-12-23T00:10:39.766Z,18.60
2022-12-23T00:13:27.117Z,21.40
2022-12-23T00:16:14.726Z,21.10
2022-12-23T00:18:42.957Z,21.30
2022-12-23T00:21:16.739Z,19.20
2022-12-23T00:23:48.332Z,17.90
2022-12-23T00:26:26.966Z,18.10
2022-12-23T00:28:58.342Z,16.80
2022-12-23T00:31:25.981Z,18.50
2022-12-23T00:33:54.485Z,19.50
2022-12-23T00:36:30.395Z,21.40
2022-12-23T00:39:18.593Z,20.00
2022-12-23T00:42:04.722Z,19.30
2022-12-23T00:44:32.605Z,18.00
2022-12-23T00:46:59.818Z,23.80
2022-12-23T00:49:42.130Z,18.00
2022-12-23T00:52:13.568Z,18.60
2022-12-23T00:54:41.021Z,18.70
2022-12-23T00:57:07.964Z,20.60
2022-12-23T00:59:34.926Z,21.20
2022-12-23T01:02:21.171Z,19.30
2022-12-23T01:05:06.924Z,21.00
2022-12-23T01:07:33.945Z,20.90
2022-12-23T01:10:00.911Z,23.30
2022-12-23T01:12:28.063Z,13.70
2022-12-23T01:14:54.982Z,17.70
2022-12-23T01:17:22.160Z,22.70
2022-12-23T01:19:49.199Z,26.80
2022-12-23T01:22:16.121Z,24.80
2022-12-23T01:24:43.072Z,26.40
2022-12-23T01:27:10.026Z,23.70
2022-12-23T01:29:36.965Z,21.30
2022-12-23T01:32:04.163Z,22.40
2022-12-23T01:34:36.339Z,19.90
2022-12-23T01:37:05.076Z,18.50
2022-12-23T01:39:32.127Z,21.30
2022-12-23T01:42:18.108Z,23.00
2022-12-23T01:44:55.418Z,17.60
2022-12-23T01:47:47.125Z,23.50
2022-12-23T01:50:20.011Z,24.50
2022-12-23T01:53:22.588Z,30.40
2022-12-23T01:55:54.819Z,30.40
2022-12-23T01:58:30.004Z,11.70
2022-12-23T02:01:17.085Z,22.40
2022-12-23T02:03:46.303Z,19.30
2022-12-23T02:06:43.668Z,33.30
2022-12-23T02:09:18.870Z,28.80
2022-12-23T02:12:24.475Z,28.10
2022-12-23T02:15:33.906Z,16.40
2022-12-23T02:18:44.777Z,27.00
2022-12-23T02:21:48.356Z,32.20
2022-12-23T02:24:46.929Z,30.80
2022-12-23T02:27:56.409Z,27.60
2022-12-23T02:30:49.121Z,24.60
2022-12-23T02:34:06.896Z,25.40
2022-12-23T02:37:20.535Z,28.90
2022-12-23T02:40:31.831Z,26.00
2022-12-23T02:43:19.000Z,21.60
2022-12-23T02:45:59.457Z,24.50
2022-12-23T02:48:39.036Z,29.10
2022-12-23T02:51:09.902Z,27.00
2022-12-23T02:53:54.546Z,22.00
2022-12-23T02:56:24.060Z,23.10
2022-12-23T02:59:13.945Z,24.30
2022-12-23T03:01:42.734Z,21.00
2022-12-23T03:04:09.883Z,19.30
2022-12-23T03:06:46.544Z,19.90
2022-12-23T03:09:26.042Z,20.00
2022-12-23T03:12:28.275Z,20.60
2022-12-23T03:15:30.385Z,20.00
2022-12-23T03:18:32.294Z,22.00
2022-12-23T03:21:24.949Z,19.20
2022-12-23T03:24:32.950Z,21.60
2022-12-23T03:27:31.644Z,20.80
2022-12-23T03:30:06.459Z,22.00
2022-12-23T03:32:41.602Z,20.90
2022-12-23T03:35:10.903Z,20.50
2022-12-23T03:37:45.083Z,21.90
2022-12-23T03:40:22.727Z,15.10
2022-12-23T03:42:58.143Z,18.00
2022-12-23T03:45:39.871Z,21.80
2022-12-23T03:48:23.187Z,21.70
2022-12-23T03:50:57.311Z,21.30
2022-12-23T03:53:42.367Z,20.00
2022-12-23T03:56:32.455Z,22.60
2022-12-23T03:59:07.243Z,17.20
2022-12-23T04:01:39.828Z,21.00
2022-12-23T04:04:29.131Z,13.80
2022-12-23T04:07:18.295Z,18.10
2022-12-23T04:09:45.918Z,15.40
2022-12-23T04:12:14.847Z,15.80
2022-12-23T04:14:49.781Z,19.60
2022-12-23T04:17:18.569Z,19.90
2022-12-23T04:19:46.612Z,16.50
2022-12-23T04:22:14.970Z,16.10
2022-12-23T04:24:43.062Z,16.80
2022-12-23T04:27:13.969Z,15.90
2022-12-23T04:29:41.266Z,15.20
2022-12-23T04:32:08.646Z,17.90
2022-12-23T04:34:35.903Z,10.40
2022-12-23T04:37:03.329Z,16.90
2022-12-23T04:39:30.195Z,12.80
2022-12-23T04:41:57.140Z,9.70
2022-12-23T04:44:24.401Z,16.30
2022-12-23T04:46:51.460Z,11.10
2022-12-23T04:49:18.611Z,14.20
2022-12-23T04:51:45.535Z,20.90
2022-12-23T04:54:12.587Z,16.40
2022-12-23T04:56:39.527Z,13.70
2022-12-23T04:59:06.474Z,10.40
2022-12-23T05:01:33.565Z,17.10
2022-12-23T05:04:00.669Z,18.50
2022-12-23T05:06:27.613Z,16.70
2022-12-23T05:08:54.557Z,18.80
2022-12-23T05:11:21.502Z,16.70
2022-12-23T05:13:48.443Z,13.60
2022-12-23T05:16:15.558Z,17.50
2022-12-23T05:18:42.552Z,16.40
2022-12-23T05:21:09.600Z,18.30
2022-12-23T05:23:36.745Z,18.50
2022-12-23T05:26:04.295Z,19.10
2022-12-23T05:28:31.446Z,18.30
2022-12-23T05:31:04.740Z,17.70
2022-12-23T05:33:32.656Z,16.00
2022-12-23T05:35:59.920Z,18.10
2022-12-23T05:38:27.519Z,18.60
2022-12-23T05:40:54.894Z,21.00
2022-12-23T05:43:22.351Z,24.60
2022-12-23T05:45:50.354Z,20.30
2022-12-23T05:48:17.968Z,21.60
2022-12-23T05:50:45.337Z,19.90
2022-12-23T05:53:12.266Z,20.00
2022-12-23T05:55:39.230Z,22.30
2022-12-23T05:58:06.257Z,18.40
2022-12-23T06:00:34.004Z,21.80
2022-12-23T06:03:01.409Z,22.40
2022-12-23T06:05:28.546Z,20.00
2022-12-23T06:07:55.475Z,11.60
2022-12-23T06:10:23.238Z,16.20
2022-12-23T06:12:50.287Z,14.60
2022-12-23T06:15:17.330Z,13.90
2022-12-23T06:17:44.388Z,16.50
2022-12-23T06:20:19.674Z,18.50
2022-12-23T06:22:47.921Z,9.70
2022-12-23T06:25:15.251Z,23.30
2022-12-23T06:27:42.205Z,15.20
2022-12-23T06:30:10.532Z,28.10
2022-12-23T06:32:38.773Z,26.70
2022-12-23T06:35:08.344Z,32.10
2022-12-23T06:37:35.398Z,23.40
2022-12-23T06:40:02.684Z,30.40
2022-12-23T06:42:29.701Z,23.20
2022-12-23T06:44:56.648Z,22.00
2022-12-23T06:47:23.591Z,24.70
2022-12-23T06:49:50.535Z,21.10
2022-12-23T06:52:17.886Z,25.40
2022-12-23T06:54:45.451Z,21.90
2022-12-23T06:57:12.703Z,28.60
2022-12-23T06:59:39.646Z,65.40
2022-12-23T07:02:06.927Z,67.40
2022-12-23T07:04:34.561Z,57.90
2022-12-23T07:07:01.505Z,63.50
2022-12-23T07:09:28.429Z,44.30
2022-12-23T07:11:55.403Z,56.00
2022-12-23T07:14:22.446Z,29.40
2022-12-23T07:16:49.432Z,42.30
2022-12-23T07:19:16.537Z,27.70
2022-12-23T07:21:43.589Z,41.70
2022-12-23T07:24:10.883Z,27.70
2022-12-23T07:26:37.922Z,37.90
2022-12-23T07:29:05.340Z,51.10
2022-12-23T07:31:32.360Z,55.80
2022-12-23T07:33:59.654Z,57.10
2022-12-23T07:36:27.007Z,34.60
2022-12-23T07:38:53.954Z,31.30
2022-12-23T07:41:21.096Z,31.30
2022-12-23T07:43:48.479Z,26.60
2022-12-23T07:46:15.751Z,22.10
2022-12-23T07:48:43.154Z,22.30
2022-12-23T07:51:10.304Z,25.40
2022-12-23T07:53:37.247Z,20.40
2022-12-23T07:56:05.266Z,20.80
2022-12-23T07:58:32.263Z,23.70
2022-12-23T08:01:05.413Z,17.90
2022-12-23T08:03:32.556Z,32.70
2022-12-23T08:06:07.866Z,37.80
2022-12-23T08:08:36.045Z,28.40
2022-12-23T08:11:06.401Z,25.70
2022-12-23T08:13:36.280Z,24.40
2022-12-23T08:16:05.813Z,34.50
2022-12-23T08:18:35.801Z,35.50
2022-12-23T08:21:07.625Z,26.00
2022-12-23T08:23:35.253Z,34.80
2022-12-23T08:26:06.871Z,22.90
2022-12-23T08:28:36.011Z,21.80
2022-12-23T08:31:09.215Z,28.70
2022-12-23T08:33:38.399Z,22.90
2022-12-23T08:36:08.387Z,21.80
2022-12-23T08:38:36.520Z,25.60
2022-12-23T08:41:04.299Z,26.00
2022-12-23T08:43:35.811Z,25.90
2022-12-23T08:46:04.275Z,28.00
2022-12-23T08:48:32.980Z,28.90
2022-12-23T08:51:06.316Z,33.30
2022-12-23T08:53:35.875Z,21.30
2022-12-23T08:56:14.026Z,27.40
2022-12-23T08:58:46.599Z,29.20
2022-12-23T09:01:16.766Z,25.30
2022-12-23T09:03:45.076Z,21.90
2022-12-23T09:06:23.311Z,29.00
2022-12-23T09:08:56.457Z,26.80
2022-12-23T09:11:26.858Z,26.80
2022-12-23T09:13:54.203Z,23.70
2022-12-23T09:16:22.340Z,28.40
2022-12-23T09:18:49.516Z,29.10
2022-12-23T09:21:22.180Z,18.80
2022-12-23T09:23:49.916Z,28.10
2022-12-23T09:26:24.786Z,30.20
2022-12-23T09:28:52.433Z,31.00
2022-12-23T09:31:20.957Z,24.30
2022-12-23T09:33:50.728Z,27.30
2022-12-23T09:36:18.546Z,32.50
2022-12-23T09:38:45.953Z,31.90
2022-12-23T09:41:31.838Z,29.90
2022-12-23T09:44:47.645Z,35.30
2022-12-23T09:47:25.434Z,34.10
2022-12-23T09:49:59.518Z,33.40
2022-12-23T09:52:55.057Z,25.30
2022-12-23T09:55:31.835Z,34.80
2022-12-23T09:58:08.932Z,33.90
2022-12-23T10:00:44.628Z,36.30
2022-12-23T10:03:59.981Z,36.60
2022-12-23T10:06:30.454Z,33.70
2022-12-23T10:09:01.585Z,23.70
2022-12-23T10:11:33.929Z,25.80
2022-12-23T10:14:27.867Z,31.20
2022-12-23T10:17:02.800Z,25.60
2022-12-23T10:19:42.854Z,22.10
2022-12-23T10:22:26.586Z,24.10
2022-12-23T10:24:56.019Z,21.10
2022-12-23T10:27:40.256Z,18.60
2022-12-23T10:30:34.241Z,21.50
2022-12-23T10:33:12.638Z,23.20
2022-12-23T10:35:51.886Z,18.80
2022-12-23T10:39:01.823Z,15.70
2022-12-23T10:42:18.327Z,13.70
2022-12-23T10:45:29.814Z,14.80
2022-12-23T10:48:33.623Z,14.50
2022-12-23T10:51:06.408Z,14.50
2022-12-23T10:54:04.276Z,14.70
2022-12-23T10:56:31.894Z,12.60
2022-12-23T10:59:01.331Z,12.30
2022-12-23T11:01:31.536Z,11.70
2022-12-23T11:04:08.123Z,13.40
2022-12-23T11:06:41.348Z,12.30
2022-12-23T11:09:18.120Z,12.00
2022-12-23T11:12:08.248Z,7.10
2022-12-23T11:14:57.775Z,12.20
2022-12-23T11:17:34.239Z,10.70
2022-12-23T11:20:17.573Z,12.20
2022-12-23T11:22:53.387Z,11.80
2022-12-23T11:25:33.880Z,16.10
2022-12-23T11:28:16.918Z,11.10
2022-12-23T11:31:08.549Z,10.50
2022-12-23T11:33:45.819Z,12.00
2022-12-23T11:36:12.760Z,9.50
2022-12-23T11:39:04.791Z,9.00
2022-12-23T11:41:42.696Z,9.60
2022-12-23T11:44:31.254Z,11.50
2022-12-23T11:47:18.774Z,9.80
2022-12-23T11:50:01.508Z,9.50
2022-12-23T11:52:31.696Z,8.60
2022-12-23T11:55:02.422Z,9.30
2022-12-23T11:57:42.604Z,11.10
2022-12-23T12:00:23.604Z,8.90
2022-12-23T12:02:57.170Z,10.20
2022-12-23T12:05:36.075Z,11.10
2022-12-23T12:08:15.245Z,10.70
2022-12-23T12:10:43.095Z,9.70
2022-12-23T12:13:37.772Z,9.50
2022-12-23T12:16:41.968Z,14.50
2022-12-23T12:19:32.422Z,10.50
2022-12-23T12:22:10.633Z,8.30
2022-12-23T12:24:51.196Z,13.20
2022-12-23T12:27:20.166Z,12.40
2022-12-23T12:29:56.145Z,12.80
2022-12-23T12:32:44.696Z,12.50
2022-12-23T12:35:53.749Z,11.20
2022-12-23T12:38:28.613Z,11.50
2022-12-23T12:41:03.502Z,12.80
2022-12-23T12:43:38.518Z,11.70
2022-12-23T12:46:27.659Z,13.10
2022-12-23T12:49:30.143Z,11.40
2022-12-23T12:52:21.352Z,13.30
2022-12-23T12:55:19.891Z,12.70
2022-12-23T12:57:46.935Z,13.80
2022-12-23T13:00:18.979Z,12.70
2022-12-23T13:03:24.188Z,12.20
2022-12-23T13:06:19.347Z,14.50
2022-12-23T13:09:40.563Z,15.80
2022-12-23T13:12:19.698Z,14.90
2022-12-23T13:15:12.755Z,11.10
2022-12-23T13:18:11.950Z,15.20
2022-12-23T13:20:57.534Z,13.10
2022-12-23T13:23:45.666Z,13.00
2022-12-23T13:26:35.045Z,14.40
2022-12-23T13:29:17.554Z,13.90
2022-12-23T13:32:16.962Z,12.40
2022-12-23T13:35:01.744Z,14.60
2022-12-23T13:41:36.342Z,12.40
2022-12-23T13:44:08.237Z,15.20
2022-12-23T13:47:18.320Z,13.00
2022-12-23T13:50:15.969Z,16.80
2022-12-23T13:53:11.991Z,15.00
2022-12-23T13:56:20.615Z,15.20
2022-12-23T13:58:49.939Z,14.20
2022-12-23T14:01:16.817Z,15.40
2022-12-23T14:03:45.129Z,17.10
2022-12-23T14:06:36.859Z,14.70
2022-12-23T14:09:04.124Z,15.00
2022-12-23T14:11:33.762Z,15.70
2022-12-23T14:14:04.270Z,15.30
2022-12-23T14:17:22.507Z,15.80
2022-12-23T14:20:34.299Z,13.30
2022-12-23T14:23:17.405Z,14.20
2022-12-23T14:26:24.041Z,12.40
2022-12-23T14:29:15.789Z,13.90
2022-12-23T14:31:46.522Z,12.70
2022-12-23T14:34:20.373Z,12.20
2022-12-23T14:37:22.060Z,12.40
2022-12-23T14:39:50.590Z,15.50
2022-12-23T14:42:41.051Z,11.80
2022-12-23T14:45:37.239Z,14.50
2022-12-23T14:48:36.019Z,14.90
2022-12-23T14:51:09.887Z,11.20
2022-12-23T14:53:58.072Z,14.30
2022-12-23T14:56:40.544Z,13.20
2022-12-23T14:59:51.607Z,15.10
2022-12-23T15:02:32.419Z,15.60
2022-12-23T15:05:00.729Z,16.80
2022-12-23T15:07:42.171Z,18.80
2022-12-23T15:10:19.470Z,18.80
2022-12-23T15:12:51.771Z,14.90
2022-12-23T15:15:26.640Z,17.40
2022-12-23T15:18:13.503Z,17.50
2022-12-23T15:20:41.101Z,19.30
2022-12-23T15:23:14.702Z,19.00
2022-12-23T15:25:46.930Z,18.50
2022-12-23T15:28:22.335Z,19.70
2022-12-23T15:30:56.729Z,14.50
2022-12-23T15:36:44.858Z,20.10
2022-12-23T15:39:26.484Z,22.30
2022-12-23T15:41:53.633Z,22.70
2022-12-23T15:44:25.991Z,23.40
2022-12-23T15:46:53.709Z,19.60
2022-12-23T15:49:21.969Z,23.20
2022-12-23T15:52:16.552Z,22.10
2022-12-23T15:54:55.973Z,20.70
2022-12-23T15:57:27.540Z,20.00
2022-12-23T15:59:56.143Z,21.90
2022-12-23T16:03:00.461Z,20.50
2022-12-23T16:05:32.095Z,22.40
2022-12-23T16:08:21.786Z,21.10
2022-12-23T16:11:21.059Z,24.00
2022-12-23T16:14:00.233Z,17.60
2022-12-23T16:16:34.493Z,22.60
2022-12-23T16:19:01.872Z,17.90
2022-12-23T16:21:35.828Z,21.10
2022-12-23T16:24:08.644Z,21.40
2022-12-23T16:26:42.787Z,20.20
2022-12-23T16:29:11.586Z,19.60
2022-12-23T16:31:42.832Z,19.50
2022-12-23T16:34:13.300Z,20.20
2022-12-23T16:36:40.235Z,20.40
2022-12-23T16:39:07.283Z,18.20
2022-12-23T16:41:34.801Z,19.30
2022-12-23T16:44:02.138Z,21.00
2022-12-23T16:46:37.014Z,16.10
2022-12-23T16:49:08.435Z,19.60
2022-12-23T16:51:37.001Z,18.10
2022-12-23T16:54:04.055Z,10.70
2022-12-23T16:56:36.900Z,19.80
2022-12-23T16:59:05.206Z,20.00
2022-12-23T17:01:42.571Z,20.10
2022-12-23T17:04:09.848Z,21.20
2022-12-23T17:06:37.855Z,23.10
2022-12-23T17:09:07.927Z,17.40
2022-12-23T17:11:42.258Z,22.60
2022-12-23T17:14:23.174Z,23.80
2022-12-23T17:16:51.488Z,23.80
2022-12-23T17:19:27.931Z,25.80
2022-12-23T17:22:02.449Z,23.30
2022-12-23T17:24:29.446Z,22.20
2022-12-23T17:26:57.382Z,21.50
2022-12-23T17:29:24.685Z,23.40
2022-12-23T17:31:52.340Z,24.80
2022-12-23T17:34:22.757Z,24.60
2022-12-23T17:36:51.142Z,24.10
2022-12-23T17:39:20.300Z,18.70
2022-12-23T17:41:47.780Z,26.30
2022-12-23T17:44:17.417Z,26.00
2022-12-23T17:46:46.267Z,25.20
2022-12-23T17:49:13.539Z,19.00
2022-12-23T17:51:41.753Z,23.90
2022-12-23T17:54:23.223Z,22.80
2022-12-23T17:56:51.067Z,23.10
2022-12-23T17:59:18.108Z,26.80
2022-12-23T18:01:45.263Z,22.40
2022-12-23T18:04:12.414Z,22.80
2022-12-23T18:06:39.323Z,20.00
2022-12-23T18:09:06.311Z,20.20
2022-12-23T18:11:42.407Z,22.50
2022-12-23T18:14:28.121Z,19.40
2022-12-23T18:16:55.465Z,21.30
2022-12-23T18:19:22.565Z,22.00
2022-12-23T18:21:50.874Z,18.00
2022-12-23T18:24:18.486Z,16.60
2022-12-23T18:26:46.215Z,20.30
2022-12-23T18:29:13.570Z,16.70
2022-12-23T18:31:51.140Z,16.60
2022-12-23T18:34:21.006Z,16.50
2022-12-23T18:36:48.624Z,16.60
2022-12-23T18:39:15.724Z,18.00
2022-12-23T18:41:42.666Z,13.70
2022-12-23T18:44:19.383Z,18.70
2022-12-23T18:46:47.089Z,13.10
2022-12-23T18:49:14.775Z,12.50
2022-12-23T18:51:41.668Z,16.10
2022-12-23T18:54:14.871Z,17.30
2022-12-23T18:56:41.894Z,15.70
2022-12-23T18:59:27.487Z,16.70
2022-12-23T19:01:56.812Z,16.60
2022-12-23T19:04:23.986Z,14.60
2022-12-23T19:06:51.030Z,17.80
2022-12-23T19:09:23.954Z,15.80
2022-12-23T19:11:53.174Z,15.70
2022-12-23T19:14:20.178Z,14.20
2022-12-23T19:16:51.476Z,16.30
2022-12-23T19:19:20.825Z,14.50
2022-12-23T19:21:47.760Z,16.10
2022-12-23T19:24:14.695Z,16.10
2022-12-23T19:26:41.969Z,14.30
2022-12-23T19:29:09.241Z,14.70
2022-12-23T19:31:36.249Z,15.80
2022-12-23T19:34:03.304Z,15.10
2022-12-23T19:36:30.369Z,13.90
2022-12-23T19:38:58.009Z,15.10
2022-12-23T19:41:25.963Z,14.50
2022-12-23T19:43:52.920Z,15.10
2022-12-23T19:46:20.007Z,16.10
2022-12-23T19:48:52.560Z,16.10
2022-12-23T19:51:19.903Z,16.40
2022-12-23T19:53:51.073Z,8.50
2022-12-23T19:56:22.639Z,17.30
2022-12-23T19:58:50.290Z,19.90
2022-12-23T20:01:24.232Z,14.60
2022-12-23T20:03:54.132Z,17.90
2022-12-23T20:06:30.867Z,16.20
2022-12-23T20:09:00.964Z,18.30
2022-12-23T20:11:30.833Z,16.30
2022-12-23T20:13:58.608Z,17.80
2022-12-23T20:16:26.989Z,17.00
2022-12-23T20:18:54.804Z,17.80
2022-12-23T20:21:21.847Z,14.00
2022-12-23T20:23:49.584Z,16.90
2022-12-23T20:26:18.985Z,15.10
2022-12-23T20:28:46.779Z,21.50
2022-12-23T20:31:29.651Z,15.50
2022-12-23T20:33:57.535Z,17.70
2022-12-23T20:36:28.770Z,16.20
2022-12-23T20:38:56.484Z,14.90
2022-12-23T20:41:28.775Z,11.60
2022-12-23T20:44:32.251Z,15.30
2022-12-23T20:46:43.629Z,10.80
2022-12-23T20:49:10.678Z,19.40
2022-12-23T20:51:37.630Z,15.50
2022-12-23T20:54:04.937Z,16.60
2022-12-23T20:56:32.130Z,17.70
2022-12-23T20:59:00.400Z,18.10
2022-12-23T21:01:32.596Z,13.10
2022-12-23T21:04:03.584Z,22.80
2022-12-23T21:06:32.544Z,18.70
2022-12-23T21:09:01.434Z,14.40
2022-12-23T21:11:31.201Z,14.20
2022-12-23T21:14:06.392Z,9.90
2022-12-23T21:16:38.508Z,17.20
2022-12-23T21:19:08.333Z,15.30
2022-12-23T21:21:36.768Z,15.10
2022-12-23T21:24:05.173Z,10.70
2022-12-23T21:26:34.739Z,18.00
2022-12-23T21:29:05.437Z,16.60
2022-12-23T21:31:36.926Z,15.70
2022-12-23T21:34:04.733Z,13.70
2022-12-23T21:36:35.542Z,12.00
2022-12-23T21:39:04.693Z,22.10
2022-12-23T21:41:37.802Z,27.20
2022-12-23T21:44:05.486Z,26.20
2022-12-23T21:46:32.797Z,25.20
2022-12-23T21:49:00.580Z,25.30
2022-12-23T21:51:39.522Z,23.90
2022-12-23T21:54:09.836Z,25.10
2022-12-23T21:56:38.025Z,23.30
2022-12-23T21:59:12.299Z,20.30
2022-12-23T22:01:40.065Z,19.40
2022-12-23T22:04:07.173Z,25.00
2022-12-23T22:06:40.468Z,29.60
2022-12-23T22:09:08.108Z,30.50
2022-12-23T22:11:36.904Z,28.40
2022-12-23T22:14:07.680Z,25.50
2022-12-23T22:16:36.082Z,24.10
2022-12-23T22:19:05.738Z,22.40
2022-12-23T22:21:34.320Z,21.60
2022-12-23T22:24:02.593Z,23.50
2022-12-23T22:26:32.498Z,25.30
2022-12-23T22:29:03.237Z,25.20
2022-12-23T22:31:48.243Z,25.90
2022-12-23T22:34:22.022Z,30.00
2022-12-23T22:36:50.294Z,24.30
2022-12-23T22:39:21.659Z,22.30
2022-12-23T22:41:51.380Z,23.60
2022-12-23T22:44:19.124Z,23.90
2022-12-23T22:46:46.582Z,21.40
2022-12-23T22:49:15.258Z,28.80
2022-12-23T22:51:43.465Z,26.10
2022-12-23T22:54:10.986Z,26.30
2022-12-23T22:56:38.041Z,29.70
2022-12-23T22:59:05.071Z,36.20
2022-12-23T23:01:35.887Z,31.40
2022-12-23T23:04:04.614Z,40.30
2022-12-23T23:06:40.634Z,34.40
2022-12-23T23:09:14.788Z,42.20
2022-12-23T23:11:41.938Z,29.80
2022-12-23T23:14:08.882Z,38.80
2022-12-23T23:16:36.059Z,36.10
2022-12-23T23:19:04.923Z,44.00
2022-12-23T23:21:32.590Z,43.20
2022-12-23T23:23:59.474Z,39.90
2022-12-23T23:26:27.629Z,42.40
2022-12-23T23:28:56.501Z,34.50
2022-12-23T23:34:12.093Z,37.00
2022-12-23T23:36:39.690Z,37.20
2022-12-23T23:39:06.820Z,42.80
2022-12-23T23:41:34.484Z,45.10
2022-12-23T23:44:01.533Z,45.20
2022-12-23T23:46:29.179Z,50.70
2022-12-23T23:48:56.245Z,42.80
2022-12-23T23:51:23.769Z,39.50
2022-12-23T23:53:50.758Z,36.10
2022-12-23T23:56:23.742Z,50.70
2022-12-23T23:58:52.140Z,51.40
